Time;durP1;ratioP1;P1;durP2;ratioP2;P2;SDS_P1;SDS_P2;PMS_P1;PMS_P2;Temp;Humidity;BMP_temperature;BMP_pressure;BME280_temperature;BME280_humidity;BME280_pressure;Samples;Min_cycle;Max_cycle;Signal;HPM_P1;HPM_P2
2022/07/16 00:03:10;;;;;;;0.20;0.20;;;19.90;85.80;;;;;;5014904;28;20124;-73
2022/07/16 00:05:35;;;;;;;0.10;0.10;;;19.80;85.80;;;;;;5013086;28;20061;-74
2022/07/16 00:08:01;;;;;;;0.20;0.20;;;19.50;86.70;;;;;;5024167;28;20045;-73
2022/07/16 00:10:27;;;;;;;0.10;0.10;;;19.50;86.60;;;;;;5034310;28;20025;-73
2022/07/16 00:12:53;;;;;;;0.10;0.10;;;19.60;85.60;;;;;;5034069;28;20030;-73
2022/07/16 00:15:19;;;;;;;0.10;0.10;;;19.70;86.00;;;;;;5033075;28;20045;-73
2022/07/16 00:17:45;;;;;;;0.30;0.30;;;19.70;85.50;;;;;;5034239;28;20032;-73
2022/07/16 00:20:12;;;;;;;0.10;0.10;;;19.50;86.30;;;;;;5032755;28;20440;-73
2022/07/16 00:22:38;;;;;;;0.10;0.10;;;19.10;88.00;;;;;;5034184;28;20465;-73
2022/07/16 00:25:04;;;;;;;0.00;0.00;;;18.80;89.60;;;;;;5034187;28;20017;-73
2022/07/16 00:27:30;;;;;;;0.10;0.10;;;18.70;90.00;;;;;;5032637;28;20478;-73
2022/07/16 00:29:56;;;;;;;0.10;0.10;;;18.50;90.60;;;;;;5016075;28;20044;-73
2022/07/16 00:32:22;;;;;;;0.20;0.20;;;18.30;91.10;;;;;;5034069;28;20017;-73
2022/07/16 00:34:47;;;;;;;0.10;0.10;;;18.20;91.20;;;;;;5033828;28;20059;-73
2022/07/16 00:37:13;;;;;;;0.10;0.10;;;18.30;90.80;;;;;;5033853;28;20018;-73
2022/07/16 00:39:39;;;;;;;0.30;0.30;;;18.30;90.50;;;;;;5033703;28;20021;-73
2022/07/16 00:42:05;;;;;;;0.43;0.43;;;18.20;90.50;;;;;;5032472;28;20021;-73
2022/07/16 00:44:30;;;;;;;0.10;0.10;;;18.10;90.60;;;;;;5033760;28;20083;-73
2022/07/16 00:46:56;;;;;;;0.20;0.20;;;18.10;90.90;;;;;;5033697;28;20137;-73
2022/07/16 00:49:22;;;;;;;0.10;0.10;;;18.00;91.10;;;;;;5032331;28;20501;-73
2022/07/16 00:51:50;;;;;;;0.20;0.20;;;18.00;91.40;;;;;;5033872;28;20025;-73
2022/07/16 00:54:16;;;;;;;0.20;0.20;;;18.00;91.50;;;;;;5033565;28;20485;-73
2022/07/16 00:56:42;;;;;;;1.10;0.80;;;17.90;91.60;;;;;;5032374;28;20056;-73
2022/07/16 00:59:08;;;;;;;0.13;0.13;;;17.70;91.80;;;;;;5032221;28;20018;-73
2022/07/16 01:01:34;;;;;;;0.43;0.43;;;17.60;92.50;;;;;;5032211;28;20048;-73
2022/07/16 01:04:04;;;;;;;0.10;0.10;;;17.70;92.30;;;;;;5033353;28;20105;-73
2022/07/16 01:06:31;;;;;;;0.10;0.10;;;17.70;92.00;;;;;;5033598;28;20455;-73
2022/07/16 01:08:58;;;;;;;0.10;0.10;;;17.80;92.10;;;;;;5033286;28;20025;-73
2022/07/16 01:11:25;;;;;;;0.10;0.10;;;18.00;91.90;;;;;;5033135;28;20434;-73
2022/07/16 01:13:51;;;;;;;0.10;0.10;;;18.00;91.70;;;;;;5031886;28;20095;-73
2022/07/16 01:16:18;;;;;;;0.20;0.20;;;18.00;91.60;;;;;;5033164;28;20171;-73
2022/07/16 01:18:45;;;;;;;0.10;0.10;;;18.00;92.20;;;;;;5032302;28;20078;-73
2022/07/16 01:21:12;;;;;;;0.20;0.20;;;18.00;91.80;;;;;;5031662;28;20484;-73
2022/07/16 01:23:38;;;;;;;0.10;0.10;;;18.10;92.30;;;;;;5032988;28;20401;-73
2022/07/16 01:26:04;;;;;;;0.10;0.10;;;18.20;91.70;;;;;;5032900;28;20032;-73
2022/07/16 01:28:29;;;;;;;0.10;0.10;;;18.10;92.10;;;;;;5033187;28;20033;-73
2022/07/16 01:30:55;;;;;;;0.10;0.10;;;18.20;91.70;;;;;;5031603;28;20053;-73
2022/07/16 01:33:31;;;;;;;0.10;0.10;;;18.30;91.70;;;;;;5032770;28;20481;-73
2022/07/16 01:36:08;;;;;;;0.20;0.20;;;18.20;91.80;;;;;;5033088;28;20013;-73
2022/07/16 01:38:36;;;;;;;0.10;0.10;;;18.40;91.10;;;;;;5031624;28;20098;-73
2022/07/16 01:41:02;;;;;;;0.10;0.10;;;18.50;90.80;;;;;;5032564;28;20018;-73
2022/07/16 01:43:29;;;;;;;0.20;0.20;;;18.60;90.70;;;;;;5032769;28;20043;-74
2022/07/16 01:45:56;;;;;;;0.65;0.65;;;18.80;90.70;;;;;;5031380;28;20029;-74
2022/07/16 01:48:22;;;;;;;0.08;0.08;;;18.80;90.30;;;;;;5032452;28;20036;-73
2022/07/16 01:50:49;;;;;;;0.30;0.30;;;18.90;89.40;;;;;;5032418;28;20021;-73
2022/07/16 01:53:15;;;;;;;0.30;0.30;;;18.90;89.40;;;;;;5032432;28;20083;-73
2022/07/16 01:55:42;;;;;;;0.10;0.10;;;18.90;88.40;;;;;;5032477;28;20033;-73
2022/07/16 01:58:10;;;;;;;0.20;0.20;;;18.90;87.90;;;;;;5032363;28;20018;-73
2022/07/16 02:00:38;;;;;;;0.10;0.10;;;18.40;88.50;;;;;;5014493;28;20063;-73
2022/07/16 02:03:04;;;;;;;0.10;0.10;;;18.20;90.40;;;;;;5032346;28;20125;-74
2022/07/16 02:05:30;;;;;;;0.43;0.43;;;18.00;90.90;;;;;;5031037;28;20083;-73
2022/07/16 02:07:56;;;;;;;0.10;0.10;;;17.90;91.50;;;;;;5022056;28;20108;-73
2022/07/16 02:10:21;;;;;;;0.10;0.10;;;17.80;92.00;;;;;;5012465;28;20045;-73
2022/07/16 02:12:47;;;;;;;0.30;0.30;;;17.80;92.30;;;;;;5011020;28;20397;-73
2022/07/16 02:15:13;;;;;;;0.10;0.10;;;17.60;92.40;;;;;;5012430;28;20018;-73
2022/07/16 02:17:39;;;;;;;0.10;0.10;;;17.30;92.90;;;;;;5012425;28;20095;-73
2022/07/16 02:20:08;;;;;;;0.10;0.10;;;17.30;93.50;;;;;;5012156;28;20417;-74
2022/07/16 02:22:34;;;;;;;0.10;0.10;;;17.50;93.50;;;;;;5012430;28;20026;-74
2022/07/16 02:25:03;;;;;;;0.15;0.15;;;17.50;93.30;;;;;;5012209;28;20030;-74
2022/07/16 02:27:29;;;;;;;0.10;0.10;;;17.40;93.20;;;;;;5010978;28;20108;-73
2022/07/16 02:29:55;;;;;;;0.20;0.20;;;17.30;93.20;;;;;;5011943;28;20431;-73
2022/07/16 02:32:20;;;;;;;0.10;0.10;;;16.90;94.40;;;;;;5012161;28;20026;-73
2022/07/16 02:34:48;;;;;;;0.17;0.17;;;16.70;95.20;;;;;;5012057;28;20112;-73
2022/07/16 02:37:14;;;;;;;0.10;0.10;;;16.60;95.30;;;;;;4994524;28;20037;-73
2022/07/16 02:39:40;;;;;;;0.10;0.10;;;16.60;95.10;;;;;;5011975;28;20061;-73
2022/07/16 02:42:06;;;;;;;0.10;0.10;;;16.70;95.60;;;;;;5010741;28;20026;-73
2022/07/16 02:44:32;;;;;;;0.65;0.35;;;16.70;95.30;;;;;;5012154;28;20057;-73
2022/07/16 02:46:57;;;;;;;0.10;0.10;;;16.80;95.20;;;;;;5012070;28;20100;-73
2022/07/16 02:49:23;;;;;;;5.70;1.27;;;16.90;95.00;;;;;;5011958;28;20461;-74
2022/07/16 02:51:49;;;;;;;23.00;1.27;;;16.90;94.90;;;;;;5011985;28;20061;-73
2022/07/16 02:54:15;;;;;;;0.32;0.32;;;16.80;94.80;;;;;;5010615;28;20076;-73
2022/07/16 02:56:40;;;;;;;0.20;0.20;;;16.70;95.40;;;;;;5012025;28;20022;-73
2022/07/16 02:59:06;;;;;;;0.32;0.32;;;16.70;95.40;;;;;;5011908;28;20022;-74
2022/07/16 03:01:32;;;;;;;0.10;0.10;;;16.60;95.30;;;;;;5010602;28;20113;-73
2022/07/16 03:03:57;;;;;;;0.13;0.13;;;16.50;95.30;;;;;;5011873;28;20045;-73
2022/07/16 03:06:23;;;;;;;0.20;0.20;;;16.50;95.40;;;;;;5011849;28;20436;-73
2022/07/16 03:08:50;;;;;;;0.30;0.30;;;16.30;95.50;;;;;;5011797;28;20028;-73
2022/07/16 03:11:16;;;;;;;0.10;0.10;;;16.30;96.00;;;;;;5011747;28;20093;-73
2022/07/16 03:13:42;;;;;;;0.10;0.10;;;16.50;95.40;;;;;;5010490;28;20026;-73
2022/07/16 03:16:08;;;;;;;0.10;0.10;;;16.30;95.90;;;;;;5010570;28;20022;-73
2022/07/16 03:18:34;;;;;;;0.17;0.17;;;16.10;96.70;;;;;;5010457;28;20022;-73
2022/07/16 03:20:59;;;;;;;0.25;0.25;;;16.10;97.60;;;;;;5011587;28;20093;-73
2022/07/16 03:23:25;;;;;;;0.35;0.35;;;16.10;97.00;;;;;;5011727;28;20026;-73
2022/07/16 03:25:51;;;;;;;0.10;0.10;;;16.10;97.10;;;;;;5010426;28;20100;-74
2022/07/16 03:28:17;;;;;;;0.30;0.30;;;16.00;97.30;;;;;;5010528;28;20022;-73
2022/07/16 03:30:42;;;;;;;0.13;0.13;;;16.20;97.70;;;;;;5011493;28;20382;-73
2022/07/16 03:33:08;;;;;;;0.20;0.20;;;16.20;97.70;;;;;;5011617;28;20065;-73
2022/07/16 03:35:34;;;;;;;0.10;0.10;;;16.30;96.70;;;;;;5011573;28;20123;-74
2022/07/16 03:40:43;;;;;;;0.10;0.10;;;16.10;98.30;;;;;;5012594;28;20085;-74
2022/07/16 03:43:09;;;;;;;0.32;0.32;;;16.20;98.00;;;;;;5015083;28;20433;-73
2022/07/16 03:45:35;;;;;;;0.10;0.10;;;16.30;97.80;;;;;;5015124;28;20076;-73
2022/07/16 03:48:01;;;;;;;0.10;0.10;;;16.00;98.30;;;;;;5015079;28;20075;-74
2022/07/16 03:50:27;;;;;;;0.57;0.30;;;16.00;98.70;;;;;;5013499;28;20109;-74
2022/07/16 03:52:53;;;;;;;0.10;0.10;;;16.00;98.30;;;;;;5013558;28;21988;-74
2022/07/16 03:55:18;;;;;;;0.10;0.10;;;16.00;98.30;;;;;;4997347;28;20382;-74
2022/07/16 03:57:44;;;;;;;0.10;0.10;;;16.00;98.60;;;;;;5015006;28;20037;-74
2022/07/16 04:00:11;;;;;;;0.10;0.10;;;16.00;99.10;;;;;;5013372;28;20400;-73
2022/07/16 04:02:37;;;;;;;0.10;0.10;;;16.10;99.20;;;;;;5026552;23;20049;-75
2022/07/16 04:05:03;;;;;;;0.10;0.10;;;16.20;98.60;;;;;;5014422;28;20030;-76
2022/07/16 04:07:29;;;;;;;0.20;0.20;;;16.00;98.70;;;;;;5021035;28;20680;-76
2022/07/16 04:09:55;;;;;;;0.10;0.10;;;15.80;99.90;;;;;;5034443;28;20025;-75
2022/07/16 04:12:24;;;;;;;0.10;0.10;;;16.00;99.90;;;;;;5034470;28;20076;-75
2022/07/16 04:14:53;;;;;;;0.10;0.10;;;16.20;99.60;;;;;;5034322;28;20029;-75
2022/07/16 04:17:19;;;;;;;0.22;0.22;;;16.20;99.40;;;;;;5034708;28;20581;-75
2022/07/16 04:19:44;;;;;;;0.17;0.17;;;16.10;99.00;;;;;;5034102;28;20093;-75
2022/07/16 04:22:10;;;;;;;0.10;0.10;;;16.20;99.50;;;;;;5034408;28;20021;-76
2022/07/16 04:24:36;;;;;;;0.10;0.10;;;16.50;98.90;;;;;;5033295;28;20413;-75
2022/07/16 04:27:02;;;;;;;0.10;0.10;;;16.50;98.50;;;;;;5032814;28;20060;-75
2022/07/16 04:29:28;;;;;;;0.17;0.17;;;16.40;98.70;;;;;;5033962;28;20497;-75
2022/07/16 04:31:54;;;;;;;0.20;0.20;;;16.50;98.90;;;;;;5034027;28;20037;-75
2022/07/16 04:34:19;;;;;;;0.10;0.10;;;16.60;98.70;;;;;;5034062;28;20026;-75
2022/07/16 04:36:45;;;;;;;0.10;0.10;;;16.80;97.90;;;;;;5034056;28;20021;-76
2022/07/16 04:39:11;;;;;;;0.50;0.50;;;16.90;97.30;;;;;;5032794;28;20534;-75
2022/07/16 04:41:37;;;;;;;0.20;0.20;;;17.10;97.40;;;;;;5032692;28;20075;-76
2022/07/16 04:44:03;;;;;;;0.20;0.20;;;17.30;96.40;;;;;;5032511;28;20029;-76
2022/07/16 04:46:29;;;;;;;0.10;0.10;;;17.30;96.40;;;;;;5034009;28;20021;-75
2022/07/16 04:48:54;;;;;;;0.52;0.52;;;17.50;96.30;;;;;;5033690;28;20028;-75
2022/07/16 04:51:20;;;;;;;0.10;0.10;;;17.50;96.10;;;;;;5033592;28;20030;-75
2022/07/16 04:53:46;;;;;;;0.20;0.20;;;17.40;96.60;;;;;;5033725;28;20022;-76
2022/07/16 04:56:11;;;;;;;0.00;0.00;;;17.70;96.50;;;;;;5015959;28;20033;-75
2022/07/16 04:58:37;;;;;;;0.20;0.20;;;17.80;95.80;;;;;;5033501;28;20040;-76
2022/07/16 05:01:03;;;;;;;0.40;0.40;;;17.70;96.30;;;;;;5033298;28;20048;-76
2022/07/16 05:03:29;;;;;;;0.10;0.10;;;17.60;96.70;;;;;;5032334;28;20116;-76
2022/07/16 05:05:55;;;;;;;0.10;0.10;;;17.70;96.60;;;;;;5032151;28;20029;-75
2022/07/16 05:08:20;;;;;;;0.10;0.10;;;18.00;96.40;;;;;;5019792;28;20433;-76
2022/07/16 05:10:46;;;;;;;0.10;0.10;;;18.10;96.30;;;;;;4995744;28;20025;-76
2022/07/16 05:13:12;;;;;;;0.30;0.30;;;18.20;96.00;;;;;;4995850;28;20566;-76
2022/07/16 05:15:37;;;;;;;0.10;0.10;;;18.20;96.60;;;;;;5012390;28;20026;-76
2022/07/16 05:18:03;;;;;;;0.10;0.10;;;18.30;96.60;;;;;;5013475;28;20045;-76
2022/07/16 05:20:30;;;;;;;0.10;0.10;;;18.50;96.70;;;;;;5000900;28;20025;-75
2022/07/16 05:22:57;;;;;;;0.10;0.10;;;18.70;96.30;;;;;;5015934;28;20024;-75
2022/07/16 05:25:23;;;;;;;0.10;0.10;;;18.60;96.60;;;;;;5021068;28;20033;-75
2022/07/16 05:27:49;;;;;;;0.15;0.15;;;18.70;95.60;;;;;;5012971;28;20030;-75
2022/07/16 05:30:15;;;;;;;0.20;0.20;;;18.80;94.50;;;;;;5011305;28;20022;-75
2022/07/16 05:32:42;;;;;;;0.10;0.10;;;19.00;94.60;;;;;;5011681;28;20497;-76
2022/07/16 05:35:17;;;;;;;0.20;0.20;;;19.10;94.70;;;;;;5011798;28;20044;-76
2022/07/16 05:37:44;;;;;;;0.10;0.10;;;19.20;93.80;;;;;;4992311;28;20042;-76
2022/07/16 05:40:10;;;;;;;0.15;0.15;;;19.40;93.60;;;;;;4993132;28;20478;-76
2022/07/16 05:42:37;;;;;;;0.10;0.10;;;19.30;93.90;;;;;;4992172;28;20470;-76
2022/07/16 05:45:04;;;;;;;0.10;0.10;;;19.30;93.10;;;;;;4993362;28;20030;-76
2022/07/16 05:47:33;;;;;;;0.38;0.38;;;19.40;92.70;;;;;;4978373;28;20503;-76
2022/07/16 05:50:04;;;;;;;0.10;0.10;;;19.40;92.50;;;;;;5011165;28;20029;-76
2022/07/16 05:52:30;;;;;;;0.10;0.10;;;19.40;92.60;;;;;;5014282;28;20109;-75
2022/07/16 05:54:55;;;;;;;0.10;0.10;;;19.30;93.90;;;;;;5031224;28;20096;-75
2022/07/16 05:57:21;;;;;;;0.10;0.10;;;19.20;94.90;;;;;;5032549;28;20109;-76
2022/07/16 05:59:47;;;;;;;0.10;0.10;;;19.30;95.50;;;;;;5032256;28;20026;-76
2022/07/16 06:02:12;;;;;;;0.10;0.10;;;19.40;96.30;;;;;;5032071;28;20459;-75
2022/07/16 06:04:38;;;;;;;0.10;0.10;;;19.40;94.70;;;;;;5031986;28;20029;-75
2022/07/16 06:07:04;;;;;;;0.10;0.10;;;19.40;94.30;;;;;;5014557;28;20046;-75
2022/07/16 06:09:30;;;;;;;0.10;0.10;;;19.60;94.20;;;;;;5012501;28;20030;-75
2022/07/16 06:11:55;;;;;;;0.10;0.10;;;19.70;94.20;;;;;;5011457;28;20037;-75
2022/07/16 06:14:21;;;;;;;0.10;0.10;;;19.70;93.80;;;;;;5012625;28;20174;-76
2022/07/16 06:16:47;;;;;;;0.20;0.20;;;19.70;93.00;;;;;;4994672;28;20030;-75
2022/07/16 06:19:13;;;;;;;0.10;0.10;;;19.90;92.40;;;;;;5009938;28;20049;-76
2022/07/16 06:21:39;;;;;;;0.10;0.10;;;20.00;90.20;;;;;;5010307;28;20057;-75
2022/07/16 06:24:05;;;;;;;0.10;0.10;;;20.00;90.00;;;;;;5012408;28;20026;-75
2022/07/16 06:26:31;;;;;;;0.10;0.10;;;20.00;87.90;;;;;;5012390;28;20080;-76
2022/07/16 06:28:57;;;;;;;0.57;0.57;;;20.10;85.50;;;;;;5011012;28;20030;-76
2022/07/16 06:31:23;;;;;;;0.10;0.10;;;19.80;83.50;;;;;;5012211;28;20022;-76
2022/07/16 06:33:48;;;;;;;0.10;0.10;;;19.80;82.70;;;;;;5010983;28;20485;-76
2022/07/16 06:36:14;;;;;;;0.00;0.00;;;19.80;80.60;;;;;;5012343;28;20022;-75
2022/07/16 06:38:40;;;;;;;0.50;0.50;;;20.00;82.60;;;;;;5012282;28;20033;-76
2022/07/16 06:41:06;;;;;;;0.00;0.00;;;20.20;82.90;;;;;;5015814;28;20076;-76
2022/07/16 06:43:31;;;;;;;0.00;0.00;;;20.40;79.80;;;;;;5029470;28;20284;-75
2022/07/16 06:45:57;;;;;;;0.10;0.10;;;20.60;79.00;;;;;;4994478;28;20073;-75
2022/07/16 06:48:23;;;;;;;1.27;0.60;;;20.70;79.50;;;;;;5017126;28;20026;-76
2022/07/16 06:50:49;;;;;;;0.25;0.25;;;21.00;77.40;;;;;;5031610;28;20042;-76
2022/07/16 06:53:15;;;;;;;0.10;0.10;;;20.80;77.50;;;;;;5030374;28;20040;-76
2022/07/16 06:55:40;;;;;;;0.00;0.00;;;21.10;77.20;;;;;;5031873;28;20475;-75
2022/07/16 06:58:06;;;;;;;0.20;0.20;;;21.20;74.80;;;;;;5016969;28;20028;-76
2022/07/16 07:00:32;;;;;;;0.10;0.10;;;21.00;73.30;;;;;;5011136;28;20383;-76
2022/07/16 07:02:57;;;;;;;0.10;0.10;;;20.90;75.40;;;;;;5011749;28;20065;-76
2022/07/16 07:05:23;;;;;;;0.30;0.30;;;21.00;77.30;;;;;;5012034;28;20452;-77
2022/07/16 07:07:49;;;;;;;0.10;0.10;;;20.90;78.10;;;;;;5011881;28;20018;-78
2022/07/16 07:10:15;;;;;;;0.10;0.10;;;20.90;77.40;;;;;;4997656;28;20022;-79
2022/07/16 07:12:40;;;;;;;0.00;0.00;;;20.90;75.10;;;;;;5015276;28;20493;-79
2022/07/16 07:15:06;;;;;;;0.10;0.10;;;21.10;76.00;;;;;;5029182;28;20036;-78
2022/07/16 07:17:32;;;;;;;0.00;0.00;;;21.20;75.50;;;;;;5038750;28;20049;-79
2022/07/16 07:19:58;;;;;;;0.10;0.10;;;21.50;74.60;;;;;;5039899;28;20025;-79
2022/07/16 07:22:24;;;;;;;0.10;0.10;;;21.50;73.40;;;;;;5039033;28;20028;-79
2022/07/16 07:24:50;;;;;;;0.03;0.03;;;21.50;73.90;;;;;;5039938;28;20385;-79
2022/07/16 07:27:18;;;;;;;0.10;0.10;;;21.30;75.10;;;;;;5022910;28;20511;-78
2022/07/16 07:29:44;;;;;;;0.00;0.00;;;21.40;75.40;;;;;;5031613;28;20373;-78
2022/07/16 07:32:09;;;;;;;1.13;0.30;;;21.40;74.70;;;;;;5036217;28;20041;-78
2022/07/16 07:34:35;;;;;;;0.55;0.55;;;21.30;73.70;;;;;;5020661;28;20028;-78
2022/07/16 07:37:01;;;;;;;0.00;0.00;;;21.40;74.50;;;;;;5023242;28;20017;-79
2022/07/16 07:39:27;;;;;;;0.10;0.10;;;21.60;73.90;;;;;;5038342;28;20423;-79
2022/07/16 07:41:52;;;;;;;0.00;0.00;;;21.80;72.60;;;;;;5040073;28;20037;-78
2022/07/16 07:44:18;;;;;;;1.17;0.75;;;22.00;71.60;;;;;;5023386;28;20033;-78
2022/07/16 07:46:44;;;;;;;0.00;0.00;;;22.00;70.10;;;;;;5028293;28;20370;-78
2022/07/16 07:49:11;;;;;;;0.90;0.90;;;22.20;70.00;;;;;;5004312;28;20378;-77
2022/07/16 07:51:37;;;;;;;0.30;0.30;;;22.20;70.20;;;;;;5020343;28;20040;-78
2022/07/16 07:54:03;;;;;;;0.47;0.47;;;22.40;69.70;;;;;;5019512;28;20040;-78
2022/07/16 07:56:28;;;;;;;7.68;1.45;;;22.50;70.40;;;;;;5020283;28;20038;-78
2022/07/16 07:58:54;;;;;;;0.32;0.30;;;22.40;70.90;;;;;;5019241;28;20105;-78
2022/07/16 08:01:20;;;;;;;0.00;0.00;;;22.60;70.60;;;;;;5020581;28;20392;-79
2022/07/16 08:03:46;;;;;;;0.85;0.85;;;22.70;71.20;;;;;;5035056;28;20022;-78
2022/07/16 08:06:11;;;;;;;0.00;0.00;;;23.00;71.60;;;;;;5020594;28;20057;-79
2022/07/16 08:08:37;;;;;;;1.13;0.55;;;23.20;70.40;;;;;;5014174;28;20026;-76
2022/07/16 08:11:03;;;;;;;0.13;0.13;;;23.40;68.50;;;;;;5013458;28;20029;-76
2022/07/16 08:13:29;;;;;;;1.20;0.70;;;23.00;69.20;;;;;;5013473;28;20032;-76
2022/07/16 08:15:54;;;;;;;0.00;0.00;;;23.30;68.00;;;;;;5014512;28;20028;-73
2022/07/16 08:18:20;;;;;;;0.00;0.00;;;23.60;65.80;;;;;;5018722;28;20026;-74
2022/07/16 08:20:46;;;;;;;0.00;0.00;;;24.10;65.20;;;;;;5032566;28;20052;-74
2022/07/16 08:23:12;;;;;;;2.38;0.65;;;24.30;60.90;;;;;;5034087;28;20509;-74
2022/07/16 08:25:46;;;;;;;0.05;0.05;;;24.40;61.00;;;;;;5034247;28;20040;-74
2022/07/16 08:28:14;;;;;;;0.47;0.47;;;24.30;60.00;;;;;;5033058;28;20109;-74
2022/07/16 08:30:44;;;;;;;0.00;0.00;;;24.10;60.60;;;;;;5038660;28;20026;-78
2022/07/16 08:33:09;;;;;;;0.10;0.10;;;24.20;60.50;;;;;;5036575;28;20036;-77
2022/07/16 08:35:35;;;;;;;0.40;0.20;;;24.70;59.50;;;;;;5017478;28;20112;-74
2022/07/16 08:38:01;;;;;;;0.00;0.00;;;25.00;58.50;;;;;;5029777;28;20072;-74
2022/07/16 08:40:27;;;;;;;0.70;0.60;;;25.30;57.70;;;;;;5014036;28;20026;-73
2022/07/16 08:42:53;;;;;;;0.00;0.00;;;25.10;57.70;;;;;;5014067;28;20037;-74
2022/07/16 08:45:22;;;;;;;0.00;0.00;;;24.90;59.00;;;;;;5012670;28;20109;-73
2022/07/16 08:47:50;;;;;;;0.00;0.00;;;24.90;58.30;;;;;;5013988;28;20026;-73
2022/07/16 08:50:16;;;;;;;0.75;0.65;;;24.90;60.00;;;;;;5013782;28;20022;-73
2022/07/16 08:52:51;;;;;;;0.45;0.45;;;24.80;58.80;;;;;;5014272;28;20033;-74
2022/07/16 08:55:21;;;;;;;0.00;0.00;;;24.70;57.90;;;;;;5013807;28;20210;-73
2022/07/16 08:57:48;;;;;;;0.20;0.13;;;24.60;58.00;;;;;;5013459;28;20506;-74
2022/07/16 09:00:15;;;;;;;0.10;0.10;;;25.10;57.80;;;;;;5012203;28;20025;-73
2022/07/16 09:02:41;;;;;;;0.05;0.05;;;25.00;58.00;;;;;;5013624;28;20494;-73
2022/07/16 09:05:08;;;;;;;0.10;0.10;;;24.70;58.30;;;;;;5013679;28;20033;-73
2022/07/16 09:07:34;;;;;;;0.00;0.00;;;24.90;58.70;;;;;;5013503;28;20033;-73
2022/07/16 09:10:01;;;;;;;4.05;3.42;;;24.80;57.50;;;;;;5013347;28;20034;-73
2022/07/16 09:12:39;;;;;;;0.00;0.00;;;24.50;58.00;;;;;;5013555;28;20112;-73
2022/07/16 09:15:28;;;;;;;0.00;0.00;;;24.70;58.70;;;;;;5013327;28;20117;-74
2022/07/16 09:18:10;;;;;;;0.38;0.38;;;25.50;56.50;;;;;;5013414;28;20076;-73
2022/07/16 09:20:39;;;;;;;0.13;0.13;;;25.90;54.90;;;;;;5013053;28;20424;-73
2022/07/16 09:23:20;;;;;;;2.10;0.70;;;25.80;54.90;;;;;;5013255;28;20018;-73
2022/07/16 09:25:51;;;;;;;0.00;0.00;;;26.10;54.80;;;;;;5013236;28;20060;-73
2022/07/16 09:28:17;;;;;;;0.00;0.00;;;26.10;54.40;;;;;;5011839;28;20441;-73
2022/07/16 09:30:43;;;;;;;0.60;0.60;;;25.70;53.60;;;;;;5012862;28;20037;-72
2022/07/16 09:33:16;;;;;;;0.13;0.13;;;26.00;53.30;;;;;;5013425;28;20454;-72
2022/07/16 09:35:43;;;;;;;0.00;0.00;;;26.50;52.00;;;;;;5013026;28;20022;-73
2022/07/16 09:38:09;;;;;;;0.38;0.38;;;26.40;52.00;;;;;;5012381;28;20487;-73
2022/07/16 09:40:38;;;;;;;0.00;0.00;;;26.40;51.50;;;;;;5012835;28;20026;-73
2022/07/16 09:43:18;;;;;;;0.10;0.10;;;26.50;54.20;;;;;;5013331;28;20046;-73
2022/07/16 09:45:47;;;;;;;0.75;0.38;;;26.70;52.50;;;;;;5012821;28;20018;-73
2022/07/16 09:48:30;;;;;;;0.13;0.13;;;26.80;53.50;;;;;;5012850;28;20388;-73
2022/07/16 09:51:13;;;;;;;0.00;0.00;;;26.80;52.20;;;;;;5012710;28;20032;-73
2022/07/16 09:53:40;;;;;;;0.00;0.00;;;26.80;52.30;;;;;;5012751;28;20037;-74
2022/07/16 09:56:13;;;;;;;0.30;0.25;;;26.90;51.30;;;;;;5012770;28;20129;-74
2022/07/16 09:58:38;;;;;;;0.10;0.10;;;27.20;51.00;;;;;;5012738;28;20026;-73
2022/07/16 10:01:06;;;;;;;0.00;0.00;;;27.00;50.70;;;;;;5028062;22;20030;-71
2022/07/16 10:03:32;;;;;;;0.00;0.00;;;27.30;50.50;;;;;;5045766;28;20045;-72
2022/07/16 10:05:58;;;;;;;0.00;0.00;;;27.80;49.90;;;;;;5032268;28;20072;-72
2022/07/16 10:08:24;;;;;;;0.00;0.00;;;28.10;48.80;;;;;;5030888;28;20056;-72
2022/07/16 10:10:50;;;;;;;0.03;0.03;;;27.90;47.90;;;;;;5041671;28;20063;-72
2022/07/16 10:13:18;;;;;;;0.32;0.32;;;27.90;50.30;;;;;;5052071;28;20024;-72
2022/07/16 10:15:46;;;;;;;1.00;0.70;;;28.20;49.20;;;;;;5052104;28;20021;-72
2022/07/16 10:18:58;;;;;;;6.75;0.80;;;27.90;48.40;;;;;;5051999;28;20028;-72
2022/07/16 10:21:24;;;;;;;0.05;0.05;;;27.90;47.80;;;;;;4990261;28;20037;-72
2022/07/16 10:24:07;;;;;;;0.20;0.20;;;27.50;48.30;;;;;;4990189;28;20085;-72
2022/07/16 10:26:34;;;;;;;7.00;1.35;;;27.80;48.90;;;;;;5021608;28;20319;-72
2022/07/16 10:29:01;;;;;;;0.00;0.00;;;27.90;47.60;;;;;;5050394;28;20526;-72
2022/07/16 10:34:38;;;;;;;0.38;0.22;;;28.30;48.10;;;;;;5052098;28;20040;-72
2022/07/16 10:37:07;;;;;;;0.70;0.68;;;28.10;47.20;;;;;;5050411;28;20385;-72
2022/07/16 10:39:33;;;;;;;0.10;0.10;;;28.40;47.80;;;;;;5050275;28;20024;-72
2022/07/16 10:42:04;;;;;;;0.00;0.00;;;27.80;48.10;;;;;;5050570;28;20112;-72
2022/07/16 10:44:50;;;;;;;0.00;0.00;;;28.00;47.20;;;;;;5050552;28;20028;-72
2022/07/16 10:47:17;;;;;;;0.00;0.00;;;28.00;47.90;;;;;;5051449;28;20037;-72
2022/07/16 10:49:44;;;;;;;13.43;0.63;;;28.40;47.40;;;;;;5068067;28;20082;-72
2022/07/16 10:52:14;;;;;;;0.43;0.20;;;28.60;46.90;;;;;;5055757;28;20082;-72
2022/07/16 10:54:41;;;;;;;0.20;0.13;;;28.50;46.30;;;;;;5055648;28;20029;-72
2022/07/16 10:57:11;;;;;;;0.35;0.30;;;28.90;45.50;;;;;;5071142;28;20029;-72
2022/07/16 10:59:48;;;;;;;0.53;0.37;;;28.60;45.80;;;;;;5054228;28;20056;-72
2022/07/16 11:02:16;;;;;;;0.10;0.10;;;28.70;45.70;;;;;;5054302;28;20033;-72
2022/07/16 11:04:46;;;;;;;0.08;0.08;;;28.10;46.40;;;;;;5055733;28;20075;-72
2022/07/16 11:07:14;;;;;;;0.20;0.20;;;28.10;46.60;;;;;;5056004;28;20448;-72
2022/07/16 11:09:42;;;;;;;0.03;0.03;;;28.40;46.30;;;;;;5055264;28;20029;-72
2022/07/16 11:12:15;;;;;;;0.28;0.20;;;28.80;46.00;;;;;;5055391;28;20029;-72
2022/07/16 11:14:46;;;;;;;0.00;0.00;;;28.60;45.90;;;;;;5054136;28;20021;-72
2022/07/16 11:17:13;;;;;;;0.03;0.03;;;28.40;46.60;;;;;;5054074;28;20032;-72
2022/07/16 11:19:41;;;;;;;1.45;1.15;;;28.60;46.20;;;;;;5055050;28;20033;-72
2022/07/16 11:22:08;;;;;;;0.65;0.13;;;28.40;45.90;;;;;;5055428;28;20017;-72
2022/07/16 11:24:34;;;;;;;0.40;0.40;;;28.50;45.70;;;;;;5054053;28;20036;-72
2022/07/16 11:27:01;;;;;;;0.05;0.00;;;28.30;45.70;;;;;;5055167;28;20464;-71
2022/07/16 11:29:29;;;;;;;0.10;0.10;;;28.20;45.90;;;;;;5055076;28;20104;-71
2022/07/16 11:31:56;;;;;;;0.00;0.00;;;28.50;45.90;;;;;;5055105;28;20064;-71
2022/07/16 11:34:22;;;;;;;0.00;0.00;;;28.60;45.90;;;;;;5053788;28;20396;-71
2022/07/16 11:36:54;;;;;;;0.00;0.00;;;28.80;46.20;;;;;;5053886;28;20032;-71
2022/07/16 11:39:25;;;;;;;0.22;0.10;;;29.30;45.60;;;;;;5053491;28;20029;-71
2022/07/16 11:41:53;;;;;;;0.40;0.40;;;29.20;45.30;;;;;;5054937;28;20100;-71
2022/07/16 11:44:30;;;;;;;4.53;0.55;;;29.00;44.70;;;;;;5054956;28;20336;-71
2022/07/16 11:47:01;;;;;;;0.73;0.73;;;28.50;45.10;;;;;;5053817;28;20025;-71
2022/07/16 11:49:41;;;;;;;1.27;0.40;;;28.20;45.30;;;;;;5053712;28;20025;-71
2022/07/16 11:52:20;;;;;;;3.10;2.08;;;28.50;46.40;;;;;;5054480;28;20075;-72
2022/07/16 11:54:46;;;;;;;0.00;0.00;;;28.70;45.30;;;;;;5054551;28;20029;-71
2022/07/16 11:57:12;;;;;;;0.10;0.10;;;29.00;45.30;;;;;;5055510;28;20025;-72
2022/07/16 11:59:52;;;;;;;0.00;0.00;;;28.90;44.40;;;;;;5053517;28;20028;-71
2022/07/16 12:02:21;;;;;;;0.20;0.10;;;28.90;44.10;;;;;;5052645;28;20036;-74
2022/07/16 12:04:52;;;;;;;0.10;0.10;;;29.00;45.20;;;;;;5054659;28;20021;-72
2022/07/16 12:07:29;;;;;;;0.38;0.30;;;28.90;45.10;;;;;;5054555;28;20025;-72
2022/07/16 12:09:57;;;;;;;0.98;0.88;;;28.70;45.80;;;;;;5054222;28;20079;-72
2022/07/16 12:12:26;;;;;;;7.75;0.45;;;28.10;46.30;;;;;;5054719;28;20014;-72
2022/07/16 12:14:56;;;;;;;0.32;0.32;;;27.90;46.60;;;;;;5053194;28;20029;-72
2022/07/16 12:17:34;;;;;;;1.60;1.50;;;27.70;46.60;;;;;;5054436;28;20028;-72
2022/07/16 12:20:21;;;;;;;0.00;0.00;;;27.50;47.50;;;;;;5052601;28;20017;-72
2022/07/16 12:22:51;;;;;;;0.08;0.08;;;27.60;47.10;;;;;;5052975;28;20025;-72
2022/07/16 12:25:26;;;;;;;0.35;0.35;;;28.00;46.90;;;;;;5052787;28;20112;-72
2022/07/16 12:27:58;;;;;;;0.00;0.00;;;28.00;45.90;;;;;;5054022;28;20476;-72
2022/07/16 12:30:51;;;;;;;2.35;0.22;;;28.20;45.70;;;;;;5052579;28;20032;-72
2022/07/16 12:33:21;;;;;;;1.08;0.30;;;28.10;46.20;;;;;;5049500;28;20075;-72
2022/07/16 12:35:57;;;;;;;0.40;0.40;;;28.00;46.50;;;;;;5053982;28;20170;-72
2022/07/16 12:39:03;;;;;;;0.00;0.00;;;27.90;45.90;;;;;;5052570;28;20135;-72
2022/07/16 12:41:36;;;;;;;0.75;0.52;;;27.80;46.40;;;;;;5053466;28;20378;-72
2022/07/16 12:44:10;;;;;;;0.20;0.20;;;27.80;46.10;;;;;;5053688;28;20090;-72
2022/07/16 12:46:43;;;;;;;2.47;0.90;;;27.90;45.70;;;;;;5053736;28;20385;-72
2022/07/16 12:49:10;;;;;;;0.35;0.35;;;27.50;45.50;;;;;;5052213;28;20081;-72
2022/07/16 12:51:39;;;;;;;0.10;0.10;;;27.40;45.60;;;;;;5052243;28;20072;-72
2022/07/16 12:54:06;;;;;;;0.00;0.00;;;26.90;45.70;;;;;;5053395;28;20021;-72
2022/07/16 12:59:19;;;;;;;0.30;0.30;;;27.50;44.40;;;;;;5053427;28;20025;-72
2022/07/16 13:01:45;;;;;;;1.27;0.73;;;27.60;45.00;;;;;;5052197;28;20033;-72